sensor_id;sensor_type;location;lat;lon;timestamp;P1;durP1;ratioP1;P2;durP2;ratioP2
16099;SDS011;8154;50.830;12.082;2022-07-24T00:00:08;4.00;;;3.60;;
16099;SDS011;8154;50.830;12.082;2022-07-24T00:02:53;4.22;;;3.92;;
16099;SDS011;8154;50.830;12.082;2022-07-24T00:05:37;4.28;;;3.88;;
16099;SDS011;8154;50.830;12.082;2022-07-24T00:08:21;4.20;;;3.83;;
16099;SDS011;8154;50.830;12.082;2022-07-24T00:11:05;4.18;;;3.88;;
16099;SDS011;8154;50.830;12.082;2022-07-24T00:13:50;3.92;;;3.55;;
16099;SDS011;8154;50.830;12.082;2022-07-24T00:16:34;4.25;;;3.85;;
16099;SDS011;8154;50.830;12.082;2022-07-24T00:19:18;4.15;;;3.75;;
16099;SDS011;8154;50.830;12.082;2022-07-24T00:22:02;4.95;;;3.92;;
16099;SDS011;8154;50.830;12.082;2022-07-24T00:24:47;3.95;;;3.60;;
16099;SDS011;8154;50.830;12.082;2022-07-24T00:27:31;4.32;;;3.40;;
16099;SDS011;8154;50.830;12.082;2022-07-24T00:30:15;3.83;;;3.40;;
16099;SDS011;8154;50.830;12.082;2022-07-24T00:32:59;3.60;;;3.30;;
16099;SDS011;8154;50.830;12.082;2022-07-24T00:35:43;3.50;;;3.20;;
16099;SDS011;8154;50.830;12.082;2022-07-24T00:38:27;3.60;;;3.30;;
16099;SDS011;8154;50.830;12.082;2022-07-24T00:41:12;3.80;;;3.50;;
16099;SDS011;8154;50.830;12.082;2022-07-24T00:44:00;3.50;;;3.22;;
16099;SDS011;8154;50.830;12.082;2022-07-24T00:46:48;3.53;;;3.10;;
16099;SDS011;8154;50.830;12.082;2022-07-24T00:49:33;3.55;;;3.25;;
16099;SDS011;8154;50.830;12.082;2022-07-24T00:52:17;3.53;;;3.22;;
16099;SDS011;8154;50.830;12.082;2022-07-24T00:55:02;3.85;;;3.25;;
16099;SDS011;8154;50.830;12.082;2022-07-24T00:57:47;3.60;;;3.30;;
16099;SDS011;8154;50.830;12.082;2022-07-24T01:00:33;3.60;;;3.30;;
16099;SDS011;8154;50.830;12.082;2022-07-24T01:03:18;3.50;;;3.20;;
16099;SDS011;8154;50.830;12.082;2022-07-24T01:06:02;3.40;;;3.20;;
16099;SDS011;8154;50.830;12.082;2022-07-24T01:08:47;3.35;;;3.05;;
16099;SDS011;8154;50.830;12.082;2022-07-24T01:11:31;3.42;;;3.13;;
16099;SDS011;8154;50.830;12.082;2022-07-24T01:14:16;3.42;;;3.13;;
16099;SDS011;8154;50.830;12.082;2022-07-24T01:17:00;3.30;;;3.00;;
16099;SDS011;8154;50.830;12.082;2022-07-24T01:19:45;3.60;;;3.30;;
16099;SDS011;8154;50.830;12.082;2022-07-24T01:22:29;3.17;;;2.97;;
16099;SDS011;8154;50.830;12.082;2022-07-24T01:25:14;3.30;;;3.10;;
16099;SDS011;8154;50.830;12.082;2022-07-24T01:27:58;3.33;;;3.03;;
16099;SDS011;8154;50.830;12.082;2022-07-24T01:30:42;3.28;;;2.97;;
16099;SDS011;8154;50.830;12.082;2022-07-24T01:33:27;3.00;;;2.80;;
16099;SDS011;8154;50.830;12.082;2022-07-24T01:36:11;3.22;;;3.00;;
16099;SDS011;8154;50.830;12.082;2022-07-24T01:38:55;3.20;;;2.90;;
16099;SDS011;8154;50.830;12.082;2022-07-24T01:41:40;3.33;;;3.03;;
16099;SDS011;8154;50.830;12.082;2022-07-24T01:44:24;3.30;;;3.10;;
16099;SDS011;8154;50.830;12.082;2022-07-24T01:47:09;3.13;;;2.90;;
16099;SDS011;8154;50.830;12.082;2022-07-24T01:49:53;4.45;;;3.08;;
16099;SDS011;8154;50.830;12.082;2022-07-24T01:52:37;3.00;;;2.80;;
16099;SDS011;8154;50.830;12.082;2022-07-24T01:55:22;2.70;;;2.50;;
16099;SDS011;8154;50.830;12.082;2022-07-24T01:58:06;2.83;;;2.60;;
16099;SDS011;8154;50.830;12.082;2022-07-24T02:00:50;3.25;;;2.85;;
16099;SDS011;8154;50.830;12.082;2022-07-24T02:03:35;2.92;;;2.70;;
16099;SDS011;8154;50.830;12.082;2022-07-24T02:06:19;3.00;;;2.80;;
16099;SDS011;8154;50.830;12.082;2022-07-24T02:09:03;2.90;;;2.70;;
16099;SDS011;8154;50.830;12.082;2022-07-24T02:11:47;2.90;;;2.70;;
16099;SDS011;8154;50.830;12.082;2022-07-24T02:14:31;2.90;;;2.70;;
16099;SDS011;8154;50.830;12.082;2022-07-24T02:17:15;2.90;;;2.70;;
16099;SDS011;8154;50.830;12.082;2022-07-24T02:20:00;2.95;;;2.75;;
16099;SDS011;8154;50.830;12.082;2022-07-24T02:22:44;3.03;;;2.60;;
16099;SDS011;8154;50.830;12.082;2022-07-24T02:25:29;2.70;;;2.50;;
16099;SDS011;8154;50.830;12.082;2022-07-24T02:28:13;2.88;;;2.53;;
16099;SDS011;8154;50.830;12.082;2022-07-24T02:30:58;3.20;;;2.90;;
16099;SDS011;8154;50.830;12.082;2022-07-24T02:33:41;2.70;;;2.50;;
16099;SDS011;8154;50.830;12.082;2022-07-24T02:36:26;2.70;;;2.50;;
16099;SDS011;8154;50.830;12.082;2022-07-24T02:39:10;2.80;;;2.60;;
16099;SDS011;8154;50.830;12.082;2022-07-24T02:41:55;2.80;;;2.60;;
16099;SDS011;8154;50.830;12.082;2022-07-24T02:44:39;2.70;;;2.50;;
16099;SDS011;8154;50.830;12.082;2022-07-24T02:47:23;2.63;;;2.50;;
16099;SDS011;8154;50.830;12.082;2022-07-24T02:50:08;2.63;;;2.42;;
16099;SDS011;8154;50.830;12.082;2022-07-24T02:52:52;2.75;;;2.55;;
16099;SDS011;8154;50.830;12.082;2022-07-24T02:55:36;2.70;;;2.50;;
16099;SDS011;8154;50.830;12.082;2022-07-24T02:58:20;2.70;;;2.50;;
16099;SDS011;8154;50.830;12.082;2022-07-24T03:01:05;2.80;;;2.60;;
16099;SDS011;8154;50.830;12.082;2022-07-24T03:03:50;2.83;;;2.63;;
16099;SDS011;8154;50.830;12.082;2022-07-24T03:06:34;2.58;;;2.38;;
16099;SDS011;8154;50.830;12.082;2022-07-24T03:09:19;2.92;;;2.70;;
16099;SDS011;8154;50.830;12.082;2022-07-24T03:12:03;3.35;;;2.70;;
16099;SDS011;8154;50.830;12.082;2022-07-24T03:14:48;2.80;;;2.60;;
16099;SDS011;8154;50.830;12.082;2022-07-24T03:17:32;2.72;;;2.53;;
16099;SDS011;8154;50.830;12.082;2022-07-24T03:20:17;4.00;;;2.58;;
16099;SDS011;8154;50.830;12.082;2022-07-24T03:23:02;3.00;;;2.65;;
16099;SDS011;8154;50.830;12.082;2022-07-24T03:25:46;3.05;;;2.78;;
16099;SDS011;8154;50.830;12.082;2022-07-24T03:28:30;2.83;;;2.63;;
16099;SDS011;8154;50.830;12.082;2022-07-24T03:31:14;3.10;;;2.90;;
16099;SDS011;8154;50.830;12.082;2022-07-24T03:33:58;2.67;;;2.47;;
16099;SDS011;8154;50.830;12.082;2022-07-24T03:36:43;2.70;;;2.50;;
16099;SDS011;8154;50.830;12.082;2022-07-24T03:39:28;4.97;;;2.55;;
16099;SDS011;8154;50.830;12.082;2022-07-24T03:42:12;2.60;;;2.40;;
16099;SDS011;8154;50.830;12.082;2022-07-24T03:44:56;2.60;;;2.40;;
16099;SDS011;8154;50.830;12.082;2022-07-24T03:47:40;2.40;;;2.20;;
16099;SDS011;8154;50.830;12.082;2022-07-24T03:50:25;2.50;;;2.30;;
16099;SDS011;8154;50.830;12.082;2022-07-24T03:53:09;2.40;;;2.30;;
16099;SDS011;8154;50.830;12.082;2022-07-24T03:55:53;2.63;;;2.42;;
16099;SDS011;8154;50.830;12.082;2022-07-24T03:58:37;2.42;;;2.30;;
16099;SDS011;8154;50.830;12.082;2022-07-24T04:01:22;2.33;;;2.20;;
16099;SDS011;8154;50.830;12.082;2022-07-24T04:04:07;2.63;;;2.42;;
16099;SDS011;8154;50.830;12.082;2022-07-24T04:06:51;2.70;;;2.50;;
16099;SDS011;8154;50.830;12.082;2022-07-24T04:09:36;2.50;;;2.30;;
16099;SDS011;8154;50.830;12.082;2022-07-24T04:12:20;2.25;;;2.05;;
16099;SDS011;8154;50.830;12.082;2022-07-24T04:15:04;3.10;;;2.33;;
16099;SDS011;8154;50.830;12.082;2022-07-24T04:17:49;2.60;;;2.40;;
16099;SDS011;8154;50.830;12.082;2022-07-24T04:20:33;2.55;;;2.33;;
16099;SDS011;8154;50.830;12.082;2022-07-24T04:23:17;2.30;;;2.20;;
16099;SDS011;8154;50.830;12.082;2022-07-24T04:26:02;2.40;;;2.20;;
16099;SDS011;8154;50.830;12.082;2022-07-24T04:28:47;2.50;;;2.30;;
16099;SDS011;8154;50.830;12.082;2022-07-24T04:31:31;2.50;;;2.30;;
16099;SDS011;8154;50.830;12.082;2022-07-24T04:34:16;2.40;;;2.30;;
16099;SDS011;8154;50.830;12.082;2022-07-24T04:37:00;2.55;;;2.33;;
16099;SDS011;8154;50.830;12.082;2022-07-24T04:39:45;2.50;;;2.30;;
16099;SDS011;8154;50.830;12.082;2022-07-24T04:42:29;2.50;;;2.30;;
16099;SDS011;8154;50.830;12.082;2022-07-24T04:45:14;2.55;;;2.35;;
16099;SDS011;8154;50.830;12.082;2022-07-24T04:47:58;2.83;;;2.63;;
16099;SDS011;8154;50.830;12.082;2022-07-24T04:50:42;2.63;;;2.40;;
16099;SDS011;8154;50.830;12.082;2022-07-24T04:53:26;2.67;;;2.47;;
16099;SDS011;8154;50.830;12.082;2022-07-24T04:56:10;2.80;;;2.60;;
16099;SDS011;8154;50.830;12.082;2022-07-24T04:58:55;2.80;;;2.60;;
16099;SDS011;8154;50.830;12.082;2022-07-24T05:01:39;2.92;;;2.63;;
16099;SDS011;8154;50.830;12.082;2022-07-24T05:04:24;2.88;;;2.67;;
16099;SDS011;8154;50.830;12.082;2022-07-24T05:07:08;3.05;;;2.85;;
16099;SDS011;8154;50.830;12.082;2022-07-24T05:09:52;3.20;;;3.00;;
16099;SDS011;8154;50.830;12.082;2022-07-24T05:12:36;4.03;;;3.30;;
16099;SDS011;8154;50.830;12.082;2022-07-24T05:15:21;3.03;;;2.83;;
16099;SDS011;8154;50.830;12.082;2022-07-24T05:18:05;3.28;;;2.97;;
16099;SDS011;8154;50.830;12.082;2022-07-24T05:20:49;2.90;;;2.70;;
16099;SDS011;8154;50.830;12.082;2022-07-24T05:23:33;2.95;;;2.70;;
16099;SDS011;8154;50.830;12.082;2022-07-24T05:26:17;2.85;;;2.65;;
16099;SDS011;8154;50.830;12.082;2022-07-24T05:29:02;3.22;;;3.03;;
16099;SDS011;8154;50.830;12.082;2022-07-24T05:31:49;3.05;;;2.85;;
16099;SDS011;8154;50.830;12.082;2022-07-24T05:34:35;3.10;;;2.90;;
16099;SDS011;8154;50.830;12.082;2022-07-24T05:37:19;3.10;;;2.90;;
16099;SDS011;8154;50.830;12.082;2022-07-24T05:40:04;3.28;;;2.90;;
16099;SDS011;8154;50.830;12.082;2022-07-24T05:42:49;3.13;;;2.92;;
16099;SDS011;8154;50.830;12.082;2022-07-24T05:45:33;3.50;;;3.30;;
16099;SDS011;8154;50.830;12.082;2022-07-24T05:48:17;3.30;;;3.00;;
16099;SDS011;8154;50.830;12.082;2022-07-24T05:51:01;3.45;;;3.15;;
16099;SDS011;8154;50.830;12.082;2022-07-24T05:53:45;3.40;;;3.10;;
16099;SDS011;8154;50.830;12.082;2022-07-24T05:56:30;2.88;;;2.67;;
16099;SDS011;8154;50.830;12.082;2022-07-24T05:59:14;2.95;;;2.75;;
16099;SDS011;8154;50.830;12.082;2022-07-24T06:01:58;3.05;;;2.85;;
16099;SDS011;8154;50.830;12.082;2022-07-24T06:04:43;3.20;;;3.00;;
16099;SDS011;8154;50.830;12.082;2022-07-24T06:07:27;3.05;;;2.85;;
16099;SDS011;8154;50.830;12.082;2022-07-24T06:10:12;3.80;;;3.15;;
16099;SDS011;8154;50.830;12.082;2022-07-24T06:12:56;3.38;;;3.08;;
16099;SDS011;8154;50.830;12.082;2022-07-24T06:15:40;3.13;;;2.90;;
16099;SDS011;8154;50.830;12.082;2022-07-24T06:18:24;3.30;;;3.00;;
16099;SDS011;8154;50.830;12.082;2022-07-24T06:21:08;2.78;;;2.58;;
16099;SDS011;8154;50.830;12.082;2022-07-24T06:23:52;3.20;;;3.00;;
16099;SDS011;8154;50.830;12.082;2022-07-24T06:26:36;3.35;;;3.05;;
16099;SDS011;8154;50.830;12.082;2022-07-24T06:29:21;3.47;;;3.17;;
16099;SDS011;8154;50.830;12.082;2022-07-24T06:32:05;3.20;;;2.80;;
16099;SDS011;8154;50.830;12.082;2022-07-24T06:34:49;2.80;;;2.60;;
16099;SDS011;8154;50.830;12.082;2022-07-24T06:37:33;3.45;;;2.78;;
16099;SDS011;8154;50.830;12.082;2022-07-24T06:40:18;3.10;;;2.90;;
16099;SDS011;8154;50.830;12.082;2022-07-24T06:43:03;3.28;;;2.97;;
16099;SDS011;8154;50.830;12.082;2022-07-24T06:45:48;3.03;;;2.70;;
16099;SDS011;8154;50.830;12.082;2022-07-24T06:48:32;3.15;;;2.85;;
16099;SDS011;8154;50.830;12.082;2022-07-24T06:51:17;2.90;;;2.70;;
16099;SDS011;8154;50.830;12.082;2022-07-24T06:54:01;3.08;;;2.78;;
16099;SDS011;8154;50.830;12.082;2022-07-24T06:56:46;2.83;;;2.60;;
16099;SDS011;8154;50.830;12.082;2022-07-24T06:59:30;2.67;;;2.47;;
16099;SDS011;8154;50.830;12.082;2022-07-24T07:02:14;2.90;;;2.65;;
16099;SDS011;8154;50.830;12.082;2022-07-24T07:04:59;2.80;;;2.60;;
16099;SDS011;8154;50.830;12.082;2022-07-24T07:07:43;3.45;;;2.70;;
16099;SDS011;8154;50.830;12.082;2022-07-24T07:10:27;3.75;;;2.70;;
16099;SDS011;8154;50.830;12.082;2022-07-24T07:13:12;2.80;;;2.40;;
16099;SDS011;8154;50.830;12.082;2022-07-24T07:15:56;2.60;;;2.40;;
16099;SDS011;8154;50.830;12.082;2022-07-24T07:18:40;2.53;;;2.33;;
16099;SDS011;8154;50.830;12.082;2022-07-24T07:21:25;3.20;;;2.60;;
16099;SDS011;8154;50.830;12.082;2022-07-24T07:24:10;2.80;;;2.60;;
16099;SDS011;8154;50.830;12.082;2022-07-24T07:26:54;2.80;;;2.55;;
16099;SDS011;8154;50.830;12.082;2022-07-24T07:29:39;3.25;;;2.40;;
16099;SDS011;8154;50.830;12.082;2022-07-24T07:32:23;2.90;;;2.65;;
16099;SDS011;8154;50.830;12.082;2022-07-24T07:35:08;3.08;;;2.30;;
16099;SDS011;8154;50.830;12.082;2022-07-24T07:37:52;2.53;;;2.33;;
16099;SDS011;8154;50.830;12.082;2022-07-24T07:40:36;2.47;;;2.28;;
16099;SDS011;8154;50.830;12.082;2022-07-24T07:43:21;2.72;;;2.40;;
16099;SDS011;8154;50.830;12.082;2022-07-24T07:46:05;2.30;;;2.10;;
16099;SDS011;8154;50.830;12.082;2022-07-24T07:48:50;2.58;;;2.38;;
16099;SDS011;8154;50.830;12.082;2022-07-24T07:51:34;2.30;;;2.10;;
16099;SDS011;8154;50.830;12.082;2022-07-24T07:54:18;2.58;;;2.05;;
16099;SDS011;8154;50.830;12.082;2022-07-24T07:57:03;2.10;;;1.90;;
16099;SDS011;8154;50.830;12.082;2022-07-24T07:59:47;2.20;;;2.00;;
16099;SDS011;8154;50.830;12.082;2022-07-24T08:02:31;1.92;;;1.80;;
16099;SDS011;8154;50.830;12.082;2022-07-24T08:05:15;1.90;;;1.80;;
16099;SDS011;8154;50.830;12.082;2022-07-24T08:07:59;2.10;;;1.90;;
16099;SDS011;8154;50.830;12.082;2022-07-24T08:10:44;1.98;;;1.83;;
16099;SDS011;8154;50.830;12.082;2022-07-24T08:13:29;2.10;;;1.85;;
16099;SDS011;8154;50.830;12.082;2022-07-24T08:16:13;1.88;;;1.77;;
16099;SDS011;8154;50.830;12.082;2022-07-24T08:18:57;1.90;;;1.80;;
16099;SDS011;8154;50.830;12.082;2022-07-24T08:21:42;1.80;;;1.70;;
16099;SDS011;8154;50.830;12.082;2022-07-24T08:24:26;1.80;;;1.70;;
16099;SDS011;8154;50.830;12.082;2022-07-24T08:27:10;2.47;;;1.90;;
16099;SDS011;8154;50.830;12.082;2022-07-24T08:29:54;1.70;;;1.60;;
16099;SDS011;8154;50.830;12.082;2022-07-24T08:32:38;2.28;;;2.08;;
16099;SDS011;8154;50.830;12.082;2022-07-24T08:35:22;2.35;;;1.90;;
16099;SDS011;8154;50.830;12.082;2022-07-24T08:38:07;2.97;;;1.92;;
16099;SDS011;8154;50.830;12.082;2022-07-24T08:40:51;3.35;;;1.85;;
16099;SDS011;8154;50.830;12.082;2022-07-24T08:43:36;2.30;;;2.10;;
16099;SDS011;8154;50.830;12.082;2022-07-24T08:46:20;2.47;;;2.00;;
16099;SDS011;8154;50.830;12.082;2022-07-24T08:49:12;2.10;;;2.00;;
16099;SDS011;8154;50.830;12.082;2022-07-24T08:51:59;2.20;;;2.00;;
16099;SDS011;8154;50.830;12.082;2022-07-24T08:54:45;1.75;;;1.65;;
16099;SDS011;8154;50.830;12.082;2022-07-24T08:57:29;2.10;;;2.00;;
16099;SDS011;8154;50.830;12.082;2022-07-24T09:00:14;2.00;;;1.90;;
16099;SDS011;8154;50.830;12.082;2022-07-24T09:02:59;2.20;;;2.00;;
16099;SDS011;8154;50.830;12.082;2022-07-24T09:05:59;2.33;;;2.10;;
16099;SDS011;8154;50.830;12.082;2022-07-24T09:08:56;2.15;;;2.05;;
16099;SDS011;8154;50.830;12.082;2022-07-24T09:11:46;2.22;;;2.13;;
16099;SDS011;8154;50.830;12.082;2022-07-24T09:14:31;2.33;;;2.13;;
16099;SDS011;8154;50.830;12.082;2022-07-24T09:17:17;2.20;;;2.10;;
16099;SDS011;8154;50.830;12.082;2022-07-24T09:20:03;2.33;;;2.03;;
16099;SDS011;8154;50.830;12.082;2022-07-24T09:22:48;2.53;;;2.30;;
16099;SDS011;8154;50.830;12.082;2022-07-24T09:25:33;2.47;;;2.28;;
16099;SDS011;8154;50.830;12.082;2022-07-24T09:28:18;2.55;;;2.17;;
16099;SDS011;8154;50.830;12.082;2022-07-24T09:31:03;3.97;;;2.30;;
16099;SDS011;8154;50.830;12.082;2022-07-24T09:33:48;2.50;;;2.30;;
16099;SDS011;8154;50.830;12.082;2022-07-24T09:36:32;2.47;;;2.28;;
16099;SDS011;8154;50.830;12.082;2022-07-24T09:39:17;2.33;;;2.13;;
16099;SDS011;8154;50.830;12.082;2022-07-24T09:42:03;2.55;;;2.20;;
16099;SDS011;8154;50.830;12.082;2022-07-24T09:44:51;2.60;;;2.40;;
16099;SDS011;8154;50.830;12.082;2022-07-24T09:47:42;2.40;;;2.20;;
16099;SDS011;8154;50.830;12.082;2022-07-24T09:50:27;2.53;;;2.33;;
16099;SDS011;8154;50.830;12.082;2022-07-24T09:53:13;2.50;;;2.30;;
16099;SDS011;8154;50.830;12.082;2022-07-24T09:56:02;2.65;;;2.33;;
16099;SDS011;8154;50.830;12.082;2022-07-24T09:58:50;2.60;;;2.40;;
16099;SDS011;8154;50.830;12.082;2022-07-24T10:01:36;2.47;;;2.28;;
16099;SDS011;8154;50.830;12.082;2022-07-24T10:04:27;2.58;;;2.40;;
16099;SDS011;8154;50.830;12.082;2022-07-24T10:07:19;2.70;;;2.50;;
16099;SDS011;8154;50.830;12.082;2022-07-24T10:10:05;2.53;;;2.35;;
16099;SDS011;8154;50.830;12.082;2022-07-24T10:12:50;2.60;;;2.40;;
16099;SDS011;8154;50.830;12.082;2022-07-24T10:15:34;2.80;;;2.60;;
16099;SDS011;8154;50.830;12.082;2022-07-24T10:18:43;3.15;;;2.30;;
16099;SDS011;8154;50.830;12.082;2022-07-24T10:21:38;2.75;;;2.53;;
16099;SDS011;8154;50.830;12.082;2022-07-24T10:30:17;2.40;;;2.20;;
16099;SDS011;8154;50.830;12.082;2022-07-24T10:33:02;2.50;;;2.40;;
16099;SDS011;8154;50.830;12.082;2022-07-24T10:35:46;2.60;;;2.40;;
16099;SDS011;8154;50.830;12.082;2022-07-24T10:38:36;2.60;;;2.40;;
16099;SDS011;8154;50.830;12.082;2022-07-24T10:41:25;2.50;;;2.25;;
16099;SDS011;8154;50.830;12.082;2022-07-24T10:44:14;2.80;;;2.60;;
16099;SDS011;8154;50.830;12.082;2022-07-24T10:47:07;2.45;;;2.25;;
16099;SDS011;8154;50.830;12.082;2022-07-24T10:49:57;2.67;;;2.47;;
16099;SDS011;8154;50.830;12.082;2022-07-24T10:52:41;3.22;;;2.55;;
16099;SDS011;8154;50.830;12.082;2022-07-24T10:58:14;2.90;;;2.70;;
16099;SDS011;8154;50.830;12.082;2022-07-24T11:01:00;2.70;;;2.50;;
16099;SDS011;8154;50.830;12.082;2022-07-24T11:03:49;2.63;;;2.42;;
16099;SDS011;8154;50.830;12.082;2022-07-24T11:06:39;2.72;;;2.50;;
16099;SDS011;8154;50.830;12.082;2022-07-24T11:09:25;2.47;;;2.38;;
16099;SDS011;8154;50.830;12.082;2022-07-24T11:12:11;2.90;;;2.50;;
16099;SDS011;8154;50.830;12.082;2022-07-24T11:14:59;2.50;;;2.30;;
16099;SDS011;8154;50.830;12.082;2022-07-24T11:18:13;2.70;;;2.50;;
16099;SDS011;8154;50.830;12.082;2022-07-24T11:20:59;2.85;;;2.35;;
16099;SDS011;8154;50.830;12.082;2022-07-24T11:23:50;2.60;;;2.40;;
16099;SDS011;8154;50.830;12.082;2022-07-24T11:27:16;2.28;;;2.17;;
16099;SDS011;8154;50.830;12.082;2022-07-24T11:30:03;2.45;;;2.28;;
16099;SDS011;8154;50.830;12.082;2022-07-24T11:32:47;2.83;;;2.63;;
16099;SDS011;8154;50.830;12.082;2022-07-24T11:35:34;3.35;;;2.33;;
16099;SDS011;8154;50.830;12.082;2022-07-24T11:38:20;2.70;;;2.38;;
16099;SDS011;8154;50.830;12.082;2022-07-24T11:41:12;2.80;;;2.50;;
16099;SDS011;8154;50.830;12.082;2022-07-24T11:43:56;2.40;;;2.25;;
16099;SDS011;8154;50.830;12.082;2022-07-24T11:46:41;2.10;;;2.00;;
16099;SDS011;8154;50.830;12.082;2022-07-24T11:49:26;2.50;;;2.30;;
16099;SDS011;8154;50.830;12.082;2022-07-24T11:52:18;2.50;;;2.30;;
16099;SDS011;8154;50.830;12.082;2022-07-24T11:55:09;2.40;;;2.20;;
16099;SDS011;8154;50.830;12.082;2022-07-24T11:57:58;2.33;;;2.22;;
16099;SDS011;8154;50.830;12.082;2022-07-24T12:00:43;2.53;;;2.33;;
16099;SDS011;8154;50.830;12.082;2022-07-24T12:03:27;2.30;;;2.10;;
16099;SDS011;8154;50.830;12.082;2022-07-24T12:06:12;2.60;;;2.40;;
16099;SDS011;8154;50.830;12.082;2022-07-24T12:09:08;2.67;;;2.47;;
16099;SDS011;8154;50.830;12.082;2022-07-24T12:11:53;2.30;;;2.20;;
16099;SDS011;8154;50.830;12.082;2022-07-24T12:14:37;2.45;;;2.25;;
16099;SDS011;8154;50.830;12.082;2022-07-24T12:17:21;2.40;;;2.30;;
16099;SDS011;8154;50.830;12.082;2022-07-24T12:20:05;2.67;;;2.47;;
16099;SDS011;8154;50.830;12.082;2022-07-24T12:22:50;2.20;;;2.10;;
16099;SDS011;8154;50.830;12.082;2022-07-24T12:25:36;2.50;;;2.30;;
16099;SDS011;8154;50.830;12.082;2022-07-24T12:28:20;2.30;;;2.20;;
16099;SDS011;8154;50.830;12.082;2022-07-24T12:31:08;2.30;;;2.10;;
16099;SDS011;8154;50.830;12.082;2022-07-24T12:33:53;2.53;;;2.33;;
16099;SDS011;8154;50.830;12.082;2022-07-24T12:36:38;2.20;;;2.10;;
16099;SDS011;8154;50.830;12.082;2022-07-24T12:39:24;2.50;;;2.20;;
16099;SDS011;8154;50.830;12.082;2022-07-24T12:42:08;2.63;;;2.42;;
16099;SDS011;8154;50.830;12.082;2022-07-24T12:44:53;2.65;;;2.45;;
16099;SDS011;8154;50.830;12.082;2022-07-24T12:51:03;2.53;;;2.33;;
16099;SDS011;8154;50.830;12.082;2022-07-24T12:53:55;2.65;;;2.22;;
16099;SDS011;8154;50.830;12.082;2022-07-24T12:56:40;2.50;;;2.30;;
16099;SDS011;8154;50.830;12.082;2022-07-24T13:02:16;2.50;;;2.30;;
16099;SDS011;8154;50.830;12.082;2022-07-24T13:05:03;2.53;;;2.33;;
16099;SDS011;8154;50.830;12.082;2022-07-24T13:07:51;2.58;;;2.38;;
16099;SDS011;8154;50.830;12.082;2022-07-24T13:10:35;2.40;;;2.20;;
16099;SDS011;8154;50.830;12.082;2022-07-24T13:13:19;2.58;;;2.38;;
16099;SDS011;8154;50.830;12.082;2022-07-24T13:16:03;2.50;;;2.30;;
16099;SDS011;8154;50.830;12.082;2022-07-24T13:18:48;3.38;;;2.42;;
16099;SDS011;8154;50.830;12.082;2022-07-24T13:21:32;2.70;;;2.50;;
16099;SDS011;8154;50.830;12.082;2022-07-24T13:24:16;2.33;;;2.22;;
16099;SDS011;8154;50.830;12.082;2022-07-24T13:27:01;2.60;;;2.40;;
16099;SDS011;8154;50.830;12.082;2022-07-24T13:29:46;2.80;;;2.58;;
16099;SDS011;8154;50.830;12.082;2022-07-24T13:32:31;2.72;;;2.53;;
16099;SDS011;8154;50.830;12.082;2022-07-24T13:35:15;2.53;;;2.33;;
16099;SDS011;8154;50.830;12.082;2022-07-24T13:38:00;2.60;;;2.40;;
16099;SDS011;8154;50.830;12.082;2022-07-24T13:40:44;2.50;;;2.30;;
16099;SDS011;8154;50.830;12.082;2022-07-24T13:43:28;2.67;;;2.47;;
16099;SDS011;8154;50.830;12.082;2022-07-24T13:46:13;2.50;;;2.30;;
16099;SDS011;8154;50.830;12.082;2022-07-24T13:49:01;2.25;;;2.15;;
16099;SDS011;8154;50.830;12.082;2022-07-24T13:51:47;2.60;;;2.40;;
16099;SDS011;8154;50.830;12.082;2022-07-24T13:54:31;2.42;;;2.22;;
16099;SDS011;8154;50.830;12.082;2022-07-24T13:57:15;2.53;;;2.38;;
16099;SDS011;8154;50.830;12.082;2022-07-24T14:00:00;2.50;;;2.30;;
16099;SDS011;8154;50.830;12.082;2022-07-24T14:02:44;2.42;;;2.22;;
16099;SDS011;8154;50.830;12.082;2022-07-24T14:05:28;2.50;;;2.30;;
16099;SDS011;8154;50.830;12.082;2022-07-24T14:08:13;2.67;;;2.47;;
16099;SDS011;8154;50.830;12.082;2022-07-24T14:10:57;2.50;;;2.30;;
16099;SDS011;8154;50.830;12.082;2022-07-24T14:13:41;2.53;;;2.33;;
16099;SDS011;8154;50.830;12.082;2022-07-24T14:16:26;2.50;;;2.30;;
16099;SDS011;8154;50.830;12.082;2022-07-24T14:19:10;2.33;;;2.22;;
16099;SDS011;8154;50.830;12.082;2022-07-24T14:21:55;2.78;;;2.58;;
16099;SDS011;8154;50.830;12.082;2022-07-24T14:24:39;2.42;;;2.22;;
16099;SDS011;8154;50.830;12.082;2022-07-24T14:27:23;2.67;;;2.47;;
16099;SDS011;8154;50.830;12.082;2022-07-24T14:30:08;2.40;;;2.30;;
16099;SDS011;8154;50.830;12.082;2022-07-24T14:32:53;2.95;;;2.50;;
16099;SDS011;8154;50.830;12.082;2022-07-24T14:35:37;3.78;;;2.42;;
16099;SDS011;8154;50.830;12.082;2022-07-24T14:38:21;2.55;;;2.35;;
16099;SDS011;8154;50.830;12.082;2022-07-24T14:41:06;2.60;;;2.40;;
16099;SDS011;8154;50.830;12.082;2022-07-24T14:43:50;2.55;;;2.35;;
16099;SDS011;8154;50.830;12.082;2022-07-24T14:46:34;2.60;;;2.40;;
16099;SDS011;8154;50.830;12.082;2022-07-24T14:49:18;2.60;;;2.40;;
16099;SDS011;8154;50.830;12.082;2022-07-24T14:52:03;2.90;;;2.30;;
16099;SDS011;8154;50.830;12.082;2022-07-24T14:54:48;2.55;;;2.35;;
16099;SDS011;8154;50.830;12.082;2022-07-24T14:57:33;2.40;;;2.28;;
16099;SDS011;8154;50.830;12.082;2022-07-24T15:00:17;2.50;;;2.30;;
16099;SDS011;8154;50.830;12.082;2022-07-24T15:03:02;2.60;;;2.40;;
16099;SDS011;8154;50.830;12.082;2022-07-24T15:05:46;2.78;;;2.58;;
16099;SDS011;8154;50.830;12.082;2022-07-24T15:08:30;2.58;;;2.38;;
16099;SDS011;8154;50.830;12.082;2022-07-24T15:11:14;2.88;;;2.55;;
16099;SDS011;8154;50.830;12.082;2022-07-24T15:13:59;2.40;;;2.30;;
16099;SDS011;8154;50.830;12.082;2022-07-24T15:16:43;2.60;;;2.40;;
16099;SDS011;8154;50.830;12.082;2022-07-24T15:19:27;2.60;;;2.50;;
16099;SDS011;8154;50.830;12.082;2022-07-24T15:22:12;2.75;;;2.55;;
16099;SDS011;8154;50.830;12.082;2022-07-24T15:24:56;2.80;;;2.60;;
16099;SDS011;8154;50.830;12.082;2022-07-24T15:27:42;2.30;;;2.20;;
16099;SDS011;8154;50.830;12.082;2022-07-24T15:30:26;2.60;;;2.40;;
16099;SDS011;8154;50.830;12.082;2022-07-24T15:33:11;2.50;;;2.30;;
16099;SDS011;8154;50.830;12.082;2022-07-24T15:35:55;2.70;;;2.50;;
16099;SDS011;8154;50.830;12.082;2022-07-24T15:38:40;2.58;;;2.38;;
16099;SDS011;8154;50.830;12.082;2022-07-24T15:41:25;2.67;;;2.47;;
16099;SDS011;8154;50.830;12.082;2022-07-24T15:44:09;2.65;;;2.45;;
16099;SDS011;8154;50.830;12.082;2022-07-24T15:46:53;2.70;;;2.50;;
16099;SDS011;8154;50.830;12.082;2022-07-24T15:49:38;2.92;;;2.67;;
16099;SDS011;8154;50.830;12.082;2022-07-24T15:52:22;2.75;;;2.55;;
16099;SDS011;8154;50.830;12.082;2022-07-24T15:55:06;2.80;;;2.60;;
16099;SDS011;8154;50.830;12.082;2022-07-24T15:57:51;2.95;;;2.65;;
16099;SDS011;8154;50.830;12.082;2022-07-24T16:00:35;2.60;;;2.40;;
16099;SDS011;8154;50.830;12.082;2022-07-24T16:03:19;2.50;;;2.30;;
16099;SDS011;8154;50.830;12.082;2022-07-24T16:06:03;2.72;;;2.50;;
16099;SDS011;8154;50.830;12.082;2022-07-24T16:08:48;2.70;;;2.50;;
16099;SDS011;8154;50.830;12.082;2022-07-24T16:11:32;2.75;;;2.55;;
16099;SDS011;8154;50.830;12.082;2022-07-24T16:14:16;2.55;;;2.40;;
16099;SDS011;8154;50.830;12.082;2022-07-24T16:17:00;2.80;;;2.60;;
16099;SDS011;8154;50.830;12.082;2022-07-24T16:19:45;2.55;;;2.35;;
16099;SDS011;8154;50.830;12.082;2022-07-24T16:22:30;2.40;;;2.30;;
16099;SDS011;8154;50.830;12.082;2022-07-24T16:25:14;2.78;;;2.58;;
16099;SDS011;8154;50.830;12.082;2022-07-24T16:28:00;2.90;;;2.70;;
16099;SDS011;8154;50.830;12.082;2022-07-24T16:30:44;2.70;;;2.50;;
16099;SDS011;8154;50.830;12.082;2022-07-24T16:33:28;2.60;;;2.40;;
16099;SDS011;8154;50.830;12.082;2022-07-24T16:36:13;2.80;;;2.60;;
16099;SDS011;8154;50.830;12.082;2022-07-24T16:38:57;2.63;;;2.42;;
16099;SDS011;8154;50.830;12.082;2022-07-24T16:41:41;2.70;;;2.50;;
16099;SDS011;8154;50.830;12.082;2022-07-24T16:44:25;2.70;;;2.50;;
16099;SDS011;8154;50.830;12.082;2022-07-24T16:47:09;2.78;;;2.50;;
16099;SDS011;8154;50.830;12.082;2022-07-24T16:49:54;2.58;;;2.38;;